createdAt,value
2022-10-23T00:06:59.430Z,26.70
2022-10-23T00:15:23.041Z,25.30
2022-10-23T00:23:46.480Z,22.60
2022-10-23T00:32:09.251Z,21.30
2022-10-23T00:40:32.417Z,22.20
2022-10-23T00:48:55.937Z,22.20
2022-10-23T00:57:19.042Z,21.10
2022-10-23T01:05:50.255Z,23.30
2022-10-23T01:14:47.372Z,25.90
2022-10-23T01:23:27.985Z,23.50
2022-10-23T01:32:15.121Z,24.10
2022-10-23T01:40:48.732Z,25.80
2022-10-23T01:49:14.100Z,20.90
2022-10-23T01:57:40.630Z,23.80
2022-10-23T02:06:04.119Z,26.00
2022-10-23T02:14:50.223Z,22.40
2022-10-23T02:23:22.478Z,27.70
2022-10-23T02:31:45.691Z,23.90
2022-10-23T02:40:10.063Z,22.90
2022-10-23T02:48:49.235Z,20.80
2022-10-23T02:57:33.032Z,25.50
2022-10-23T03:05:56.385Z,22.40
2022-10-23T03:14:19.668Z,23.30
2022-10-23T03:22:42.734Z,20.70
2022-10-23T03:31:05.982Z,20.30
2022-10-23T03:39:29.000Z,20.90
2022-10-23T03:47:52.979Z,21.70
2022-10-23T03:56:15.826Z,23.00
2022-10-23T04:04:38.739Z,22.10
2022-10-23T04:13:01.636Z,26.40
2022-10-23T04:21:28.618Z,23.60
2022-10-23T04:29:54.261Z,21.90
2022-10-23T04:46:43.190Z,23.50
2022-10-23T04:55:07.852Z,27.50
2022-10-23T05:03:41.146Z,24.60
2022-10-23T05:12:04.378Z,28.00
2022-10-23T05:20:33.769Z,26.20
2022-10-23T05:28:56.964Z,36.00
2022-10-23T05:37:20.159Z,36.10
2022-10-23T05:45:43.548Z,26.00
2022-10-23T05:54:18.289Z,32.20
2022-10-23T06:03:10.056Z,33.50
2022-10-23T06:11:34.906Z,31.90
2022-10-23T06:20:02.623Z,31.60
2022-10-23T06:28:28.488Z,29.60
2022-10-23T06:36:51.429Z,29.80
2022-10-23T06:45:43.388Z,24.60
2022-10-23T06:54:11.303Z,27.90
2022-10-23T07:02:43.182Z,24.10
2022-10-23T07:11:08.431Z,21.40
2022-10-23T07:19:31.617Z,26.50
2022-10-23T07:27:59.641Z,22.60
2022-10-23T07:36:25.150Z,23.30
2022-10-23T07:44:48.322Z,25.70
2022-10-23T07:53:17.993Z,17.30
2022-10-23T08:01:47.352Z,22.80
2022-10-23T08:10:10.576Z,20.00
2022-10-23T08:18:33.958Z,18.00
2022-10-23T08:26:58.705Z,14.50
2022-10-23T08:35:22.020Z,13.60
2022-10-23T08:43:54.705Z,20.60
2022-10-23T08:52:32.233Z,17.20
2022-10-23T09:00:55.258Z,44.20
2022-10-23T09:09:39.618Z,19.40
2022-10-23T09:18:12.536Z,35.00
2022-10-23T09:26:35.460Z,18.40
2022-10-23T09:34:58.214Z,20.20
2022-10-23T09:43:24.109Z,21.40
2022-10-23T09:52:08.204Z,25.00
2022-10-23T10:00:31.144Z,18.90
2022-10-23T10:08:59.406Z,18.20
2022-10-23T10:17:47.061Z,21.00
2022-10-23T10:34:49.340Z,15.10
2022-10-23T10:43:21.093Z,23.60
2022-10-23T10:52:02.303Z,14.90
2022-10-23T11:00:26.261Z,12.60
2022-10-23T11:08:57.563Z,13.00
2022-10-23T11:17:37.380Z,13.80
2022-10-23T11:26:03.225Z,14.20
2022-10-23T11:34:53.672Z,9.90
2022-10-23T11:43:49.251Z,14.30
2022-10-23T11:52:30.544Z,12.30
2022-10-23T12:01:02.710Z,11.90
2022-10-23T12:09:43.494Z,12.60
2022-10-23T12:18:24.666Z,12.20
2022-10-23T12:27:02.652Z,14.00
2022-10-23T12:35:49.044Z,13.00
2022-10-23T12:52:40.673Z,7.00
2022-10-23T13:01:08.459Z,22.80
2022-10-23T13:09:48.369Z,7.10
2022-10-23T13:18:23.862Z,8.00
2022-10-23T13:27:06.959Z,9.20
2022-10-23T13:35:40.597Z,14.30
2022-10-23T13:44:16.236Z,9.70
2022-10-23T13:52:47.667Z,9.10
2022-10-23T14:01:29.401Z,10.60
2022-10-23T14:09:59.437Z,7.10
2022-10-23T14:18:30.835Z,9.00
2022-10-23T14:27:07.974Z,10.30
2022-10-23T14:35:48.608Z,6.10
2022-10-23T14:44:17.117Z,6.40
2022-10-23T14:52:47.080Z,8.60
2022-10-23T15:01:15.617Z,8.70
2022-10-23T15:09:46.191Z,10.70
2022-10-23T15:18:19.312Z,8.70
2022-10-23T15:26:48.552Z,11.60
2022-10-23T15:35:19.840Z,24.50
2022-10-23T15:43:52.150Z,27.10
2022-10-23T15:52:26.339Z,15.50
2022-10-23T16:00:54.644Z,15.40
2022-10-23T16:09:23.405Z,18.90
2022-10-23T16:17:53.838Z,11.30
2022-10-23T16:26:33.669Z,10.30
2022-10-23T16:35:03.476Z,14.30
2022-10-23T16:43:41.417Z,19.60
2022-10-23T16:52:30.938Z,16.90
2022-10-23T17:01:02.532Z,21.40
2022-10-23T17:09:27.614Z,36.10
2022-10-23T17:17:50.449Z,19.40
2022-10-23T17:26:17.480Z,15.80
2022-10-23T17:34:40.260Z,16.80
2022-10-23T17:43:04.400Z,26.70
2022-10-23T17:51:32.544Z,24.50
2022-10-23T17:59:55.468Z,33.20
2022-10-23T18:08:18.252Z,38.10
2022-10-23T18:16:41.051Z,22.90
2022-10-23T18:25:04.842Z,36.80
2022-10-23T18:33:27.652Z,51.50
2022-10-23T18:41:53.926Z,91.60
2022-10-23T18:50:17.067Z,56.00
2022-10-23T18:58:39.857Z,53.70
2022-10-23T19:07:02.620Z,45.80
2022-10-23T19:15:25.696Z,86.10
2022-10-23T19:23:49.850Z,75.40
2022-10-23T19:32:12.885Z,86.70
2022-10-23T19:40:36.056Z,90.20
2022-10-23T19:48:58.979Z,95.20
2022-10-23T19:57:22.653Z,120.60
2022-10-23T20:05:46.034Z,147.40
2022-10-23T20:14:08.919Z,135.50
2022-10-23T20:22:32.001Z,149.00
2022-10-23T20:30:54.814Z,120.80
2022-10-23T20:39:25.591Z,111.80
2022-10-23T20:47:48.749Z,108.60
2022-10-23T20:56:19.612Z,122.20
2022-10-23T21:04:42.510Z,125.70
2022-10-23T21:13:05.325Z,115.70
2022-10-23T21:21:29.264Z,131.70
2022-10-23T21:29:52.057Z,107.70
2022-10-23T21:38:14.892Z,108.60
2022-10-23T21:46:37.737Z,99.80
2022-10-23T21:55:00.438Z,79.80
2022-10-23T22:03:23.362Z,63.30
2022-10-23T22:11:46.192Z,77.50
2022-10-23T22:20:09.178Z,64.80
2022-10-23T22:28:31.953Z,59.90
2022-10-23T22:36:55.118Z,72.10
2022-10-23T22:45:17.917Z,80.10
2022-10-23T22:53:41.354Z,69.00
2022-10-23T23:02:04.474Z,76.30
2022-10-23T23:10:27.210Z,91.90
2022-10-23T23:18:50.778Z,91.00
2022-10-23T23:27:13.535Z,69.90
2022-10-23T23:35:41.202Z,51.90
2022-10-23T23:44:04.126Z,44.20
2022-10-23T23:52:26.894Z,39.80
